createdAt,value
2022-11-10T00:02:28.871Z,22.10
2022-11-10T00:05:15.817Z,22.10
2022-11-10T00:08:06.062Z,22.10
2022-11-10T00:11:01.918Z,22.10
2022-11-10T00:14:07.344Z,22.00
2022-11-10T00:17:02.205Z,22.00
2022-11-10T00:19:47.312Z,22.00
2022-11-10T00:22:34.468Z,22.00
2022-11-10T00:25:20.141Z,22.00
2022-11-10T00:28:05.331Z,22.00
2022-11-10T00:30:50.917Z,22.00
2022-11-10T00:33:42.605Z,22.00
2022-11-10T00:36:28.198Z,22.00
2022-11-10T00:39:13.657Z,22.00
2022-11-10T00:41:59.493Z,22.00
2022-11-10T00:44:44.688Z,21.90
2022-11-10T00:47:30.185Z,21.90
2022-11-10T00:50:15.707Z,21.90
2022-11-10T00:53:01.064Z,21.90
2022-11-10T00:55:46.732Z,21.90
2022-11-10T00:58:32.119Z,21.90
2022-11-10T01:01:19.604Z,21.90
2022-11-10T01:04:05.110Z,21.90
2022-11-10T01:06:51.801Z,21.90
2022-11-10T01:09:37.579Z,21.80
2022-11-10T01:12:23.189Z,21.80
2022-11-10T01:15:08.943Z,21.80
2022-11-10T01:17:55.703Z,21.80
2022-11-10T01:20:41.251Z,21.80
2022-11-10T01:23:26.867Z,21.80
2022-11-10T01:26:12.635Z,21.80
2022-11-10T01:28:58.312Z,21.80
2022-11-10T01:31:44.306Z,21.80
2022-11-10T01:34:29.709Z,21.80
2022-11-10T01:37:15.168Z,21.80
2022-11-10T01:40:00.749Z,21.80
2022-11-10T01:42:57.632Z,21.70
2022-11-10T01:45:54.942Z,21.80
2022-11-10T01:48:57.746Z,21.70
2022-11-10T01:51:54.331Z,21.70
2022-11-10T01:54:43.664Z,21.70
2022-11-10T01:57:28.823Z,21.70
2022-11-10T02:00:14.224Z,21.60
2022-11-10T02:03:34.397Z,21.50
2022-11-10T02:06:22.279Z,21.60
2022-11-10T02:09:08.152Z,21.50
2022-11-10T02:11:54.883Z,21.60
2022-11-10T02:14:40.739Z,21.60
2022-11-10T02:17:25.764Z,21.60
2022-11-10T02:20:13.275Z,21.60
2022-11-10T02:22:58.587Z,21.60
2022-11-10T02:25:43.948Z,21.60
2022-11-10T02:28:33.641Z,21.60
2022-11-10T02:31:19.030Z,21.60
2022-11-10T02:34:04.559Z,21.60
2022-11-10T02:36:49.992Z,21.50
2022-11-10T02:39:35.342Z,21.50
2022-11-10T02:42:20.752Z,21.60
2022-11-10T02:45:06.857Z,21.50
2022-11-10T02:47:52.171Z,21.50
2022-11-10T02:50:38.152Z,21.50
2022-11-10T02:53:23.751Z,21.50
2022-11-10T02:56:09.509Z,21.50
2022-11-10T02:58:55.020Z,21.50
2022-11-10T03:01:40.519Z,21.50
2022-11-10T03:04:25.945Z,21.50
2022-11-10T03:07:11.449Z,21.50
2022-11-10T03:09:56.981Z,21.50
2022-11-10T03:12:42.465Z,21.50
2022-11-10T03:15:28.516Z,21.40
2022-11-10T03:18:13.940Z,21.40
2022-11-10T03:20:59.291Z,21.40
2022-11-10T03:23:44.807Z,21.40
2022-11-10T03:26:30.337Z,21.40
2022-11-10T03:29:15.795Z,21.40
2022-11-10T03:32:01.552Z,21.40
2022-11-10T03:34:47.054Z,21.40
2022-11-10T03:37:32.657Z,21.40
2022-11-10T03:40:18.403Z,21.40
2022-11-10T03:43:03.681Z,21.40
2022-11-10T03:45:49.259Z,21.40
2022-11-10T03:48:34.616Z,21.40
2022-11-10T03:51:20.259Z,21.40
2022-11-10T03:54:05.498Z,21.40
2022-11-10T03:56:50.968Z,21.40
2022-11-10T03:59:36.640Z,21.30
2022-11-10T04:02:21.875Z,21.40
2022-11-10T04:05:27.102Z,21.30
2022-11-10T04:08:34.399Z,21.40
2022-11-10T04:11:38.400Z,21.30
2022-11-10T04:14:42.228Z,21.30
2022-11-10T04:17:27.658Z,21.30
2022-11-10T04:20:13.122Z,21.20
2022-11-10T04:23:17.020Z,21.30
2022-11-10T04:26:24.092Z,21.30
2022-11-10T04:29:11.197Z,21.20
2022-11-10T04:31:56.629Z,21.20
2022-11-10T04:34:41.925Z,21.20
2022-11-10T04:37:27.401Z,21.20
2022-11-10T04:40:12.839Z,21.20
2022-11-10T04:42:58.316Z,21.20
2022-11-10T04:45:44.057Z,21.20
2022-11-10T04:48:30.344Z,21.20
2022-11-10T04:51:16.822Z,21.20
2022-11-10T04:54:02.146Z,21.20
2022-11-10T04:56:47.548Z,21.20
2022-11-10T04:59:33.070Z,21.20
2022-11-10T05:02:18.506Z,21.20
2022-11-10T05:05:04.267Z,21.20
2022-11-10T05:07:49.443Z,21.20
2022-11-10T05:10:36.179Z,21.20
2022-11-10T05:13:21.775Z,21.20
2022-11-10T05:16:08.023Z,21.20
2022-11-10T05:18:54.247Z,21.10
2022-11-10T05:21:40.184Z,21.10
2022-11-10T05:24:25.526Z,21.10
2022-11-10T05:27:10.867Z,21.10
2022-11-10T05:29:56.596Z,21.10
2022-11-10T05:32:41.817Z,21.10
2022-11-10T05:35:27.223Z,21.10
2022-11-10T05:38:12.679Z,21.10
2022-11-10T05:40:58.280Z,21.10
2022-11-10T05:43:43.561Z,21.10
2022-11-10T05:46:28.891Z,21.10
2022-11-10T05:49:14.272Z,21.10
2022-11-10T05:51:59.732Z,21.10
2022-11-10T05:54:45.287Z,21.10
2022-11-10T05:57:30.714Z,21.10
2022-11-10T06:00:18.268Z,21.10
2022-11-10T06:03:12.956Z,21.10
2022-11-10T06:05:58.290Z,21.10
2022-11-10T06:08:43.746Z,21.00
2022-11-10T06:11:29.231Z,21.00
2022-11-10T06:14:14.749Z,21.00
2022-11-10T06:17:00.240Z,21.00
2022-11-10T06:19:46.335Z,21.00
2022-11-10T06:22:31.944Z,21.00
2022-11-10T06:25:17.295Z,21.00
2022-11-10T06:28:03.528Z,21.00
2022-11-10T06:30:48.935Z,21.00
2022-11-10T06:33:34.392Z,21.00
2022-11-10T06:36:19.914Z,21.00
2022-11-10T06:39:05.279Z,21.00
2022-11-10T06:41:50.910Z,21.00
2022-11-10T06:44:36.314Z,21.00
2022-11-10T06:47:21.903Z,20.90
2022-11-10T06:50:07.692Z,21.00
2022-11-10T06:52:57.150Z,21.00
2022-11-10T06:55:42.431Z,21.00
2022-11-10T06:58:27.770Z,21.00
2022-11-10T07:01:13.223Z,20.90
2022-11-10T07:04:18.774Z,20.90
2022-11-10T07:07:04.356Z,21.00
2022-11-10T07:09:49.965Z,20.90
2022-11-10T07:12:35.447Z,20.90
2022-11-10T07:15:20.920Z,20.90
2022-11-10T07:18:06.340Z,20.90
2022-11-10T07:20:51.838Z,20.90
2022-11-10T07:23:37.331Z,20.90
2022-11-10T07:26:22.943Z,20.90
2022-11-10T07:29:08.247Z,20.90
2022-11-10T07:31:53.987Z,20.90
2022-11-10T07:34:39.426Z,20.90
2022-11-10T07:37:25.047Z,20.90
2022-11-10T07:40:11.076Z,20.90
2022-11-10T07:42:56.517Z,20.90
2022-11-10T07:45:41.878Z,20.90
2022-11-10T07:48:27.433Z,20.90
2022-11-10T07:51:12.920Z,20.80
2022-11-10T07:53:58.589Z,20.80
2022-11-10T07:56:43.927Z,20.70
2022-11-10T07:59:29.400Z,20.50
2022-11-10T08:02:14.877Z,20.50
2022-11-10T08:05:00.444Z,20.40
2022-11-10T08:07:46.283Z,20.30
2022-11-10T08:10:32.131Z,20.20
2022-11-10T08:13:17.395Z,20.10
2022-11-10T08:16:03.248Z,20.10
2022-11-10T08:18:48.675Z,20.00
2022-11-10T08:21:34.128Z,19.90
2022-11-10T08:24:19.571Z,19.90
2022-11-10T08:27:04.948Z,19.90
2022-11-10T08:29:50.388Z,19.90
2022-11-10T08:32:35.724Z,19.80
2022-11-10T08:35:22.408Z,19.80
2022-11-10T08:38:12.879Z,19.80
2022-11-10T08:40:57.952Z,19.80
2022-11-10T08:43:43.849Z,19.80
2022-11-10T08:46:28.901Z,19.80
2022-11-10T08:49:14.379Z,19.90
2022-11-10T08:51:59.742Z,19.90
2022-11-10T08:54:45.073Z,19.90
2022-11-10T08:57:30.568Z,20.00
2022-11-10T09:00:16.943Z,20.00
2022-11-10T09:03:08.252Z,20.00
2022-11-10T09:05:58.051Z,20.10
2022-11-10T09:08:43.952Z,20.10
2022-11-10T09:11:30.728Z,20.10
2022-11-10T09:14:15.803Z,20.20
2022-11-10T09:17:01.238Z,20.20
2022-11-10T09:19:46.613Z,20.20
2022-11-10T09:22:32.156Z,20.20
2022-11-10T09:25:17.523Z,20.20
2022-11-10T09:28:03.348Z,20.20
2022-11-10T09:30:50.781Z,20.30
2022-11-10T09:33:36.247Z,20.30
2022-11-10T09:36:21.713Z,20.30
2022-11-10T09:39:07.624Z,20.40
2022-11-10T09:41:53.366Z,20.40
2022-11-10T09:44:51.332Z,20.40
2022-11-10T09:47:57.256Z,20.40
2022-11-10T09:50:51.621Z,20.40
2022-11-10T09:53:55.438Z,20.40
2022-11-10T09:56:41.730Z,20.40
2022-11-10T09:59:34.901Z,20.40
2022-11-10T10:02:34.116Z,20.40
2022-11-10T10:05:40.838Z,20.50
2022-11-10T10:08:40.128Z,20.40
2022-11-10T10:11:28.296Z,20.50
2022-11-10T10:14:39.626Z,20.40
2022-11-10T10:17:41.146Z,20.40
2022-11-10T10:20:41.894Z,20.40
2022-11-10T10:24:02.609Z,20.40
2022-11-10T10:26:45.079Z,20.40
2022-11-10T10:29:37.594Z,20.40
2022-11-10T10:32:23.355Z,20.40
2022-11-10T10:35:16.387Z,20.40
2022-11-10T10:38:02.465Z,20.50
2022-11-10T10:40:50.696Z,20.50
2022-11-10T10:43:36.190Z,20.50
2022-11-10T10:46:28.324Z,20.50
2022-11-10T10:49:28.472Z,20.50
2022-11-10T10:52:16.903Z,20.50
2022-11-10T10:55:06.920Z,20.50
2022-11-10T10:57:58.572Z,20.60
2022-11-10T11:00:45.933Z,20.50
2022-11-10T11:03:43.438Z,20.50
2022-11-10T11:06:30.733Z,20.60
2022-11-10T11:09:19.974Z,20.50
2022-11-10T11:12:08.970Z,20.50
2022-11-10T11:15:20.399Z,20.50
2022-11-10T11:18:14.175Z,20.60
2022-11-10T11:21:23.006Z,20.50
2022-11-10T11:24:17.852Z,20.60
2022-11-10T11:27:03.327Z,20.60
2022-11-10T11:30:02.370Z,20.60
2022-11-10T11:33:13.776Z,20.60
2022-11-10T11:35:58.927Z,20.60
2022-11-10T11:38:52.276Z,20.50
2022-11-10T11:41:52.388Z,20.60
2022-11-10T11:44:55.695Z,20.60
2022-11-10T11:48:01.632Z,20.60
2022-11-10T11:50:55.209Z,20.60
2022-11-10T11:54:09.138Z,20.60
2022-11-10T11:57:15.623Z,20.60
2022-11-10T12:00:04.058Z,20.60
2022-11-10T12:03:22.774Z,20.60
2022-11-10T12:06:40.556Z,20.70
2022-11-10T12:10:15.500Z,20.70
2022-11-10T12:13:00.914Z,20.80
2022-11-10T12:16:15.923Z,20.70
2022-11-10T12:19:19.434Z,20.90
2022-11-10T12:22:46.164Z,20.80
2022-11-10T12:25:31.755Z,20.90
2022-11-10T12:28:22.424Z,20.90
2022-11-10T12:31:14.950Z,20.90
2022-11-10T12:34:01.424Z,21.00
2022-11-10T12:36:47.481Z,21.00
2022-11-10T12:40:03.885Z,21.00
2022-11-10T12:43:00.176Z,21.10
2022-11-10T12:45:49.358Z,21.10
2022-11-10T12:49:01.598Z,21.10
2022-11-10T12:52:17.591Z,21.10
2022-11-10T12:55:03.044Z,21.10
2022-11-10T12:57:48.762Z,21.10
2022-11-10T13:00:43.794Z,21.10
2022-11-10T13:03:34.913Z,21.10
2022-11-10T13:06:32.710Z,21.10
2022-11-10T13:09:30.390Z,21.00
2022-11-10T13:12:18.242Z,21.10
2022-11-10T13:15:35.752Z,21.00
2022-11-10T13:18:29.887Z,21.10
2022-11-10T13:21:15.955Z,21.00
2022-11-10T13:24:02.572Z,21.00
2022-11-10T13:26:56.826Z,21.00
2022-11-10T13:29:48.145Z,21.00
2022-11-10T13:32:34.832Z,21.00
2022-11-10T13:35:29.194Z,21.00
2022-11-10T13:38:33.059Z,21.00
2022-11-10T13:41:18.356Z,21.00
2022-11-10T13:44:03.784Z,20.90
2022-11-10T13:47:35.021Z,20.90
2022-11-10T13:50:52.518Z,21.00
2022-11-10T13:54:12.860Z,20.90
2022-11-10T13:57:11.666Z,20.90
2022-11-10T14:00:00.534Z,20.90
2022-11-10T14:03:03.690Z,20.90
2022-11-10T14:06:05.107Z,20.90
2022-11-10T14:09:20.163Z,20.90
2022-11-10T14:12:19.354Z,20.90
2022-11-10T14:15:12.569Z,20.90
2022-11-10T14:17:58.511Z,20.80
2022-11-10T14:20:46.214Z,20.70
2022-11-10T14:23:45.726Z,20.80
2022-11-10T14:26:49.827Z,20.80
2022-11-10T14:29:39.164Z,20.70
2022-11-10T14:32:25.965Z,20.70
2022-11-10T14:35:22.892Z,20.70
2022-11-10T14:38:40.710Z,20.80
2022-11-10T14:41:26.397Z,20.70
2022-11-10T14:44:24.499Z,20.70
2022-11-10T14:47:15.709Z,20.80
2022-11-10T14:50:20.772Z,20.70
2022-11-10T14:53:19.157Z,20.80
2022-11-10T14:56:06.941Z,20.80
2022-11-10T14:58:52.849Z,20.80
2022-11-10T15:02:09.250Z,20.80
2022-11-10T15:04:54.550Z,20.80
2022-11-10T15:07:40.713Z,20.80
2022-11-10T15:10:28.816Z,20.80
2022-11-10T15:13:14.013Z,20.80
2022-11-10T15:16:22.530Z,20.90
2022-11-10T15:19:49.229Z,20.90
2022-11-10T15:22:36.314Z,20.90
2022-11-10T15:25:28.460Z,20.80
2022-11-10T15:28:13.827Z,20.90
2022-11-10T15:31:07.510Z,20.90
2022-11-10T15:34:00.794Z,20.90
2022-11-10T15:36:46.254Z,20.90
2022-11-10T15:39:31.760Z,20.90
2022-11-10T15:42:22.652Z,20.90
2022-11-10T15:45:08.394Z,20.90
2022-11-10T15:47:53.847Z,20.90
2022-11-10T15:50:40.224Z,20.90
2022-11-10T15:53:28.076Z,20.90
2022-11-10T15:56:17.010Z,20.90
2022-11-10T15:59:02.744Z,20.90
2022-11-10T16:01:49.136Z,20.90
2022-11-10T16:04:34.456Z,20.90
2022-11-10T16:07:19.966Z,20.90
2022-11-10T16:10:06.459Z,21.00
2022-11-10T16:12:51.918Z,20.90
2022-11-10T16:15:38.738Z,21.00
2022-11-10T16:18:27.179Z,21.00
2022-11-10T16:21:17.236Z,21.00
2022-11-10T16:24:02.399Z,21.00
2022-11-10T16:26:48.010Z,21.00
2022-11-10T16:29:35.808Z,21.00
2022-11-10T16:32:20.937Z,21.00
2022-11-10T16:35:06.719Z,21.00
2022-11-10T16:37:52.076Z,21.10
2022-11-10T16:40:37.596Z,21.10
2022-11-10T16:43:23.529Z,21.10
2022-11-10T16:46:29.009Z,21.20
2022-11-10T16:49:22.102Z,21.30
2022-11-10T16:52:17.497Z,21.30
2022-11-10T16:55:03.024Z,21.30
2022-11-10T16:57:49.106Z,21.30
2022-11-10T17:00:34.599Z,21.30
2022-11-10T17:03:33.424Z,21.40
2022-11-10T17:06:19.672Z,21.40
2022-11-10T17:09:17.271Z,21.40
2022-11-10T17:12:02.428Z,21.50
2022-11-10T17:14:48.157Z,21.50
2022-11-10T17:17:34.187Z,21.40
2022-11-10T17:20:32.334Z,21.50
2022-11-10T17:23:23.573Z,21.60
2022-11-10T17:26:10.531Z,21.60
2022-11-10T17:28:56.474Z,21.60
2022-11-10T17:31:41.740Z,21.60
2022-11-10T17:34:27.229Z,21.70
2022-11-10T17:37:13.314Z,21.70
2022-11-10T17:39:58.915Z,21.70
2022-11-10T17:42:44.453Z,21.70
2022-11-10T17:45:32.635Z,21.70
2022-11-10T17:48:17.816Z,21.80
2022-11-10T17:51:03.816Z,21.80
2022-11-10T17:53:50.657Z,21.80
2022-11-10T17:56:36.626Z,21.80
2022-11-10T17:59:22.426Z,21.80
2022-11-10T18:02:10.797Z,21.90
2022-11-10T18:04:56.158Z,21.90
2022-11-10T18:07:43.199Z,21.90
2022-11-10T18:10:28.352Z,21.90
2022-11-10T18:13:13.854Z,21.90
2022-11-10T18:16:00.497Z,21.90
2022-11-10T18:18:45.888Z,21.90
2022-11-10T18:21:31.513Z,21.90
2022-11-10T18:24:16.877Z,22.00
2022-11-10T18:27:02.206Z,21.90
2022-11-10T18:29:47.649Z,21.90
2022-11-10T18:32:32.912Z,22.00
2022-11-10T18:35:18.360Z,22.00
2022-11-10T18:38:03.762Z,22.00
2022-11-10T18:40:49.302Z,22.00
2022-11-10T18:43:34.850Z,22.00
2022-11-10T18:46:20.374Z,22.00
2022-11-10T18:49:05.845Z,22.00
2022-11-10T18:51:51.232Z,22.00
2022-11-10T18:54:36.788Z,22.00
2022-11-10T18:57:22.313Z,22.00
2022-11-10T19:00:08.531Z,22.00
2022-11-10T19:02:53.629Z,22.00
2022-11-10T19:05:39.295Z,22.10
2022-11-10T19:08:26.152Z,22.10
2022-11-10T19:11:16.364Z,22.10
2022-11-10T19:14:02.433Z,22.10
2022-11-10T19:16:47.787Z,22.10
2022-11-10T19:19:33.242Z,22.10
2022-11-10T19:22:18.641Z,22.20
2022-11-10T19:25:08.545Z,22.20
2022-11-10T19:27:54.385Z,22.20
2022-11-10T19:30:39.871Z,22.20
2022-11-10T19:33:25.472Z,22.20
2022-11-10T19:36:13.852Z,22.30
2022-11-10T19:38:59.254Z,22.30
2022-11-10T19:41:44.854Z,22.30
2022-11-10T19:44:30.535Z,22.30
2022-11-10T19:47:16.036Z,22.30
2022-11-10T19:50:01.491Z,22.30
2022-11-10T19:52:46.911Z,22.30
2022-11-10T19:55:32.731Z,22.30
2022-11-10T19:58:18.061Z,22.40
2022-11-10T20:01:03.750Z,22.40
2022-11-10T20:03:49.324Z,22.40
2022-11-10T20:06:34.935Z,22.30
2022-11-10T20:09:20.655Z,22.40
2022-11-10T20:12:06.383Z,22.40
2022-11-10T20:14:52.490Z,22.40
2022-11-10T20:17:37.614Z,22.40
2022-11-10T20:20:23.442Z,22.40
2022-11-10T20:23:11.577Z,22.40
2022-11-10T20:26:17.218Z,22.40
2022-11-10T20:29:02.491Z,22.50
2022-11-10T20:31:48.299Z,22.40
2022-11-10T20:34:33.470Z,22.40
2022-11-10T20:37:18.991Z,22.40
2022-11-10T20:40:10.424Z,22.50
2022-11-10T20:43:04.283Z,22.50
2022-11-10T20:45:52.633Z,22.50
2022-11-10T20:48:38.187Z,22.50
2022-11-10T20:51:23.702Z,22.50
2022-11-10T20:54:09.381Z,22.50
2022-11-10T20:56:54.992Z,22.50
2022-11-10T20:59:40.294Z,22.50
2022-11-10T21:02:25.771Z,22.50
2022-11-10T21:05:11.316Z,22.50
2022-11-10T21:07:56.834Z,22.50
2022-11-10T21:10:52.808Z,22.50
2022-11-10T21:13:38.342Z,22.50
2022-11-10T21:16:23.750Z,22.50
2022-11-10T21:19:09.390Z,22.50
2022-11-10T21:21:54.860Z,22.50
2022-11-10T21:24:40.402Z,22.50
2022-11-10T21:27:26.128Z,22.60
2022-11-10T21:30:22.513Z,22.50
2022-11-10T21:33:08.179Z,22.50
2022-11-10T21:35:53.700Z,22.50
2022-11-10T21:38:39.219Z,22.50
2022-11-10T21:41:25.074Z,22.50
2022-11-10T21:44:10.274Z,22.50
2022-11-10T21:46:55.724Z,22.50
2022-11-10T21:49:41.365Z,22.50
2022-11-10T21:52:32.379Z,22.50
2022-11-10T21:55:17.949Z,22.50
2022-11-10T21:58:03.359Z,22.50
2022-11-10T22:00:48.920Z,22.50
2022-11-10T22:03:35.100Z,22.50
2022-11-10T22:06:21.463Z,22.50
2022-11-10T22:09:07.072Z,22.50
2022-11-10T22:12:10.885Z,22.50
2022-11-10T22:15:14.782Z,22.50
2022-11-10T22:18:19.388Z,22.50
2022-11-10T22:21:05.499Z,22.50
2022-11-10T22:24:09.180Z,22.50
2022-11-10T22:26:56.335Z,22.50
2022-11-10T22:29:41.650Z,22.40
2022-11-10T22:32:27.205Z,22.40
2022-11-10T22:35:32.725Z,22.50
2022-11-10T22:38:18.203Z,22.50
2022-11-10T22:41:23.820Z,22.40
2022-11-10T22:44:11.250Z,22.50
2022-11-10T22:46:56.828Z,22.40
2022-11-10T22:49:42.223Z,22.40
2022-11-10T22:52:27.740Z,22.40
2022-11-10T22:55:13.244Z,22.40
2022-11-10T22:57:58.461Z,22.40
2022-11-10T23:00:46.544Z,22.40
2022-11-10T23:03:32.345Z,22.40
2022-11-10T23:06:17.571Z,22.40
2022-11-10T23:09:03.849Z,22.40
2022-11-10T23:11:49.238Z,22.40
2022-11-10T23:14:34.899Z,22.40
2022-11-10T23:17:20.352Z,22.40
2022-11-10T23:20:06.152Z,22.40
2022-11-10T23:22:55.229Z,22.40
2022-11-10T23:25:40.571Z,22.40
2022-11-10T23:28:30.536Z,22.40
2022-11-10T23:31:18.927Z,22.40
2022-11-10T23:34:04.255Z,22.40
2022-11-10T23:36:49.646Z,22.40
2022-11-10T23:39:35.162Z,22.30
2022-11-10T23:42:20.405Z,22.40
2022-11-10T23:45:06.339Z,22.40
2022-11-10T23:47:52.000Z,22.30
2022-11-10T23:50:37.331Z,22.30
2022-11-10T23:53:23.222Z,22.30
2022-11-10T23:56:13.217Z,22.30
2022-11-10T23:58:58.672Z,22.40
